sensor_id;sensor_type;location;lat;lon;timestamp;P1;durP1;ratioP1;P2;durP2;ratioP2
7605;SDS011;3844;53.360;9.738;2022-08-11T00:01:24;5.03;;;2.33;;
7605;SDS011;3844;53.360;9.738;2022-08-11T00:03:27;4.95;;;2.63;;
7605;SDS011;3844;53.360;9.738;2022-08-11T00:05:28;4.60;;;2.30;;
7605;SDS011;3844;53.360;9.738;2022-08-11T00:07:29;5.63;;;2.55;;
7605;SDS011;3844;53.360;9.738;2022-08-11T00:09:31;4.38;;;2.28;;
7605;SDS011;3844;53.360;9.738;2022-08-11T00:11:36;6.82;;;2.65;;
7605;SDS011;3844;53.360;9.738;2022-08-11T00:13:43;5.88;;;2.83;;
7605;SDS011;3844;53.360;9.738;2022-08-11T00:15:47;7.88;;;3.00;;
7605;SDS011;3844;53.360;9.738;2022-08-11T00:17:49;6.93;;;2.80;;
7605;SDS011;3844;53.360;9.738;2022-08-11T00:20:10;6.28;;;2.90;;
7605;SDS011;3844;53.360;9.738;2022-08-11T00:22:18;5.13;;;2.78;;
7605;SDS011;3844;53.360;9.738;2022-08-11T00:24:21;6.57;;;2.85;;
7605;SDS011;3844;53.360;9.738;2022-08-11T00:26:23;5.43;;;2.72;;
7605;SDS011;3844;53.360;9.738;2022-08-11T00:28:29;4.13;;;2.50;;
7605;SDS011;3844;53.360;9.738;2022-08-11T00:30:37;4.95;;;2.60;;
7605;SDS011;3844;53.360;9.738;2022-08-11T00:32:44;4.97;;;2.30;;
7605;SDS011;3844;53.360;9.738;2022-08-11T00:34:53;5.28;;;2.58;;
7605;SDS011;3844;53.360;9.738;2022-08-11T00:39:03;4.03;;;2.40;;
7605;SDS011;3844;53.360;9.738;2022-08-11T00:41:10;4.13;;;2.45;;
7605;SDS011;3844;53.360;9.738;2022-08-11T00:43:40;4.70;;;2.20;;
7605;SDS011;3844;53.360;9.738;2022-08-11T00:50:25;6.22;;;2.30;;
7605;SDS011;3844;53.360;9.738;2022-08-11T00:52:35;5.07;;;2.38;;
7605;SDS011;3844;53.360;9.738;2022-08-11T01:07:10;5.78;;;3.08;;
7605;SDS011;3844;53.360;9.738;2022-08-11T01:09:17;4.97;;;2.75;;
7605;SDS011;3844;53.360;9.738;2022-08-11T01:16:46;6.63;;;2.63;;
7605;SDS011;3844;53.360;9.738;2022-08-11T01:31:29;4.90;;;2.55;;
7605;SDS011;3844;53.360;9.738;2022-08-11T01:46:15;5.07;;;2.72;;
7605;SDS011;3844;53.360;9.738;2022-08-11T01:55:18;4.65;;;2.85;;
7605;SDS011;3844;53.360;9.738;2022-08-11T02:03:45;4.70;;;2.78;;
7605;SDS011;3844;53.360;9.738;2022-08-11T02:06:24;6.63;;;3.10;;
7605;SDS011;3844;53.360;9.738;2022-08-11T02:09:40;4.38;;;2.42;;
7605;SDS011;3844;53.360;9.738;2022-08-11T02:11:30;5.38;;;2.80;;
7605;SDS011;3844;53.360;9.738;2022-08-11T02:13:35;5.10;;;2.70;;
7605;SDS011;3844;53.360;9.738;2022-08-11T02:15:46;5.95;;;2.72;;
7605;SDS011;3844;53.360;9.738;2022-08-11T02:18:05;5.00;;;2.70;;
7605;SDS011;3844;53.360;9.738;2022-08-11T02:20:49;4.97;;;2.45;;
7605;SDS011;3844;53.360;9.738;2022-08-11T02:31:24;4.60;;;2.40;;
7605;SDS011;3844;53.360;9.738;2022-08-11T02:34:08;4.38;;;2.35;;
7605;SDS011;3844;53.360;9.738;2022-08-11T02:36:21;5.15;;;2.60;;
7605;SDS011;3844;53.360;9.738;2022-08-11T02:43:29;4.78;;;2.60;;
7605;SDS011;3844;53.360;9.738;2022-08-11T02:45:54;5.45;;;2.65;;
7605;SDS011;3844;53.360;9.738;2022-08-11T02:51:15;5.05;;;2.70;;
7605;SDS011;3844;53.360;9.738;2022-08-11T02:53:24;4.43;;;2.50;;
7605;SDS011;3844;53.360;9.738;2022-08-11T02:55:49;6.40;;;2.70;;
7605;SDS011;3844;53.360;9.738;2022-08-11T02:58:15;5.22;;;2.58;;
7605;SDS011;3844;53.360;9.738;2022-08-11T03:00:49;5.55;;;2.67;;
7605;SDS011;3844;53.360;9.738;2022-08-11T03:05:25;5.10;;;2.50;;
7605;SDS011;3844;53.360;9.738;2022-08-11T03:10:24;5.35;;;2.33;;
7605;SDS011;3844;53.360;9.738;2022-08-11T03:12:38;4.30;;;2.35;;
7605;SDS011;3844;53.360;9.738;2022-08-11T03:15:06;3.88;;;2.30;;
7605;SDS011;3844;53.360;9.738;2022-08-11T03:22:19;4.50;;;2.60;;
7605;SDS011;3844;53.360;9.738;2022-08-11T03:27:04;4.28;;;2.30;;
7605;SDS011;3844;53.360;9.738;2022-08-11T03:29:34;4.40;;;2.38;;
7605;SDS011;3844;53.360;9.738;2022-08-11T03:33:50;6.00;;;2.42;;
7605;SDS011;3844;53.360;9.738;2022-08-11T03:41:05;4.68;;;2.78;;
7605;SDS011;3844;53.360;9.738;2022-08-11T03:46:02;4.00;;;2.47;;
7605;SDS011;3844;53.360;9.738;2022-08-11T04:15:22;5.13;;;2.70;;
7605;SDS011;3844;53.360;9.738;2022-08-11T04:36:58;5.22;;;2.70;;
7605;SDS011;3844;53.360;9.738;2022-08-11T04:39:45;4.22;;;2.40;;
7605;SDS011;3844;53.360;9.738;2022-08-11T04:52:51;4.70;;;2.70;;
7605;SDS011;3844;53.360;9.738;2022-08-11T05:11:49;5.03;;;2.33;;
7605;SDS011;3844;53.360;9.738;2022-08-11T05:13:45;5.18;;;2.10;;
7605;SDS011;3844;53.360;9.738;2022-08-11T05:16:08;3.90;;;2.10;;
7605;SDS011;3844;53.360;9.738;2022-08-11T05:18:29;5.10;;;2.47;;
7605;SDS011;3844;53.360;9.738;2022-08-11T05:20:51;4.60;;;2.28;;
7605;SDS011;3844;53.360;9.738;2022-08-11T05:23:13;4.10;;;2.20;;
7605;SDS011;3844;53.360;9.738;2022-08-11T05:25:35;3.80;;;2.10;;
7605;SDS011;3844;53.360;9.738;2022-08-11T05:28:45;4.85;;;2.08;;
7605;SDS011;3844;53.360;9.738;2022-08-11T05:30:59;3.53;;;1.65;;
7605;SDS011;3844;53.360;9.738;2022-08-11T05:33:36;3.90;;;1.90;;
7605;SDS011;3844;53.360;9.738;2022-08-11T05:36:06;4.05;;;1.90;;
7605;SDS011;3844;53.360;9.738;2022-08-11T05:38:17;4.55;;;2.10;;
7605;SDS011;3844;53.360;9.738;2022-08-11T05:40:45;3.92;;;2.00;;
7605;SDS011;3844;53.360;9.738;2022-08-11T05:43:13;3.38;;;1.80;;
7605;SDS011;3844;53.360;9.738;2022-08-11T05:45:33;4.05;;;1.92;;
7605;SDS011;3844;53.360;9.738;2022-08-11T05:47:53;5.35;;;1.80;;
7605;SDS011;3844;53.360;9.738;2022-08-11T05:50:13;3.58;;;1.80;;
7605;SDS011;3844;53.360;9.738;2022-08-11T05:52:35;4.18;;;1.90;;
7605;SDS011;3844;53.360;9.738;2022-08-11T05:54:59;3.50;;;1.73;;
7605;SDS011;3844;53.360;9.738;2022-08-11T05:57:29;4.57;;;2.10;;
7605;SDS011;3844;53.360;9.738;2022-08-11T05:59:32;3.97;;;1.88;;
7605;SDS011;3844;53.360;9.738;2022-08-11T06:01:33;4.78;;;1.83;;
7605;SDS011;3844;53.360;9.738;2022-08-11T06:03:34;4.50;;;2.05;;
7605;SDS011;3844;53.360;9.738;2022-08-11T06:06:01;3.50;;;1.85;;
7605;SDS011;3844;53.360;9.738;2022-08-11T06:08:08;3.60;;;1.67;;
7605;SDS011;3844;53.360;9.738;2022-08-11T06:10:11;3.67;;;1.95;;
7605;SDS011;3844;53.360;9.738;2022-08-11T06:12:19;3.03;;;1.33;;
7605;SDS011;3844;53.360;9.738;2022-08-11T06:14:26;3.38;;;1.70;;
7605;SDS011;3844;53.360;9.738;2022-08-11T06:16:27;3.67;;;1.70;;
7605;SDS011;3844;53.360;9.738;2022-08-11T06:18:28;4.75;;;1.70;;
7605;SDS011;3844;53.360;9.738;2022-08-11T06:20:30;3.78;;;1.80;;
7605;SDS011;3844;53.360;9.738;2022-08-11T06:22:36;4.97;;;1.75;;
7605;SDS011;3844;53.360;9.738;2022-08-11T06:24:41;5.82;;;2.20;;
7605;SDS011;3844;53.360;9.738;2022-08-11T06:26:58;3.50;;;1.90;;
7605;SDS011;3844;53.360;9.738;2022-08-11T06:29:00;4.45;;;1.80;;
7605;SDS011;3844;53.360;9.738;2022-08-11T06:31:09;3.93;;;1.80;;
7605;SDS011;3844;53.360;9.738;2022-08-11T06:33:28;4.18;;;1.90;;
7605;SDS011;3844;53.360;9.738;2022-08-11T06:40:07;6.43;;;1.90;;
7605;SDS011;3844;53.360;9.738;2022-08-11T06:42:08;4.03;;;1.67;;
7605;SDS011;3844;53.360;9.738;2022-08-11T06:46:16;4.15;;;1.60;;
7605;SDS011;3844;53.360;9.738;2022-08-11T06:48:29;3.45;;;1.33;;
7605;SDS011;3844;53.360;9.738;2022-08-11T06:50:32;4.50;;;1.60;;
7605;SDS011;3844;53.360;9.738;2022-08-11T06:52:52;3.47;;;1.50;;
7605;SDS011;3844;53.360;9.738;2022-08-11T06:54:53;3.65;;;1.42;;
7605;SDS011;3844;53.360;9.738;2022-08-11T06:57:10;4.10;;;1.42;;
7605;SDS011;3844;53.360;9.738;2022-08-11T06:59:31;4.50;;;1.45;;
7605;SDS011;3844;53.360;9.738;2022-08-11T07:01:56;2.85;;;1.40;;
7605;SDS011;3844;53.360;9.738;2022-08-11T07:04:07;4.60;;;1.42;;
7605;SDS011;3844;53.360;9.738;2022-08-11T07:06:14;4.40;;;1.60;;
7605;SDS011;3844;53.360;9.738;2022-08-11T07:14:06;4.10;;;1.48;;
7605;SDS011;3844;53.360;9.738;2022-08-11T07:16:27;4.30;;;1.30;;
7605;SDS011;3844;53.360;9.738;2022-08-11T07:18:33;4.13;;;1.40;;
7605;SDS011;3844;53.360;9.738;2022-08-11T07:20:54;5.85;;;1.70;;
7605;SDS011;3844;53.360;9.738;2022-08-11T07:23:25;4.35;;;1.50;;
7605;SDS011;3844;53.360;9.738;2022-08-11T07:25:51;3.47;;;1.23;;
7605;SDS011;3844;53.360;9.738;2022-08-11T07:28:21;4.05;;;1.35;;
7605;SDS011;3844;53.360;9.738;2022-08-11T07:30:45;4.75;;;1.80;;
7605;SDS011;3844;53.360;9.738;2022-08-11T07:32:52;4.10;;;1.40;;
7605;SDS011;3844;53.360;9.738;2022-08-11T07:35:01;5.25;;;1.50;;
7605;SDS011;3844;53.360;9.738;2022-08-11T07:37:16;3.47;;;1.40;;
7605;SDS011;3844;53.360;9.738;2022-08-11T07:41:22;7.27;;;1.80;;
7605;SDS011;3844;53.360;9.738;2022-08-11T07:43:24;4.47;;;1.58;;
7605;SDS011;3844;53.360;9.738;2022-08-11T07:45:25;4.22;;;1.40;;
7605;SDS011;3844;53.360;9.738;2022-08-11T07:47:53;5.43;;;1.60;;
7605;SDS011;3844;53.360;9.738;2022-08-11T07:50:13;3.33;;;1.30;;
7605;SDS011;3844;53.360;9.738;2022-08-11T07:52:33;5.63;;;1.42;;
7605;SDS011;3844;53.360;9.738;2022-08-11T07:54:36;4.05;;;1.40;;
7605;SDS011;3844;53.360;9.738;2022-08-11T07:56:38;3.37;;;1.30;;
7605;SDS011;3844;53.360;9.738;2022-08-11T07:58:39;4.18;;;1.60;;
7605;SDS011;3844;53.360;9.738;2022-08-11T08:00:58;5.05;;;1.67;;
7605;SDS011;3844;53.360;9.738;2022-08-11T08:03:18;4.32;;;1.50;;
7605;SDS011;3844;53.360;9.738;2022-08-11T08:05:38;3.55;;;1.40;;
7605;SDS011;3844;53.360;9.738;2022-08-11T08:07:59;4.40;;;1.40;;
7605;SDS011;3844;53.360;9.738;2022-08-11T08:10:18;4.25;;;1.60;;
7605;SDS011;3844;53.360;9.738;2022-08-11T08:12:39;5.05;;;1.85;;
7605;SDS011;3844;53.360;9.738;2022-08-11T08:14:59;4.95;;;1.70;;
7605;SDS011;3844;53.360;9.738;2022-08-11T08:17:23;4.45;;;1.65;;
7605;SDS011;3844;53.360;9.738;2022-08-11T08:19:45;4.90;;;1.60;;
7605;SDS011;3844;53.360;9.738;2022-08-11T08:21:47;4.45;;;1.55;;
7605;SDS011;3844;53.360;9.738;2022-08-11T08:23:48;4.70;;;1.55;;
7605;SDS011;3844;53.360;9.738;2022-08-11T08:25:50;5.28;;;1.73;;
7605;SDS011;3844;53.360;9.738;2022-08-11T08:27:52;5.18;;;1.40;;
7605;SDS011;3844;53.360;9.738;2022-08-11T08:29:55;6.63;;;1.70;;
7605;SDS011;3844;53.360;9.738;2022-08-11T08:32:15;8.23;;;1.65;;
7605;SDS011;3844;53.360;9.738;2022-08-11T08:36:18;6.57;;;1.60;;
7605;SDS011;3844;53.360;9.738;2022-08-11T08:38:22;5.43;;;1.60;;
7605;SDS011;3844;53.360;9.738;2022-08-11T08:40:23;3.03;;;1.20;;
7605;SDS011;3844;53.360;9.738;2022-08-11T08:42:28;4.05;;;1.30;;
7605;SDS011;3844;53.360;9.738;2022-08-11T08:44:30;7.18;;;1.80;;
7605;SDS011;3844;53.360;9.738;2022-08-11T08:46:45;3.50;;;1.25;;
7605;SDS011;3844;53.360;9.738;2022-08-11T08:48:49;4.68;;;1.30;;
7605;SDS011;3844;53.360;9.738;2022-08-11T08:50:52;3.83;;;1.50;;
7605;SDS011;3844;53.360;9.738;2022-08-11T08:53:19;4.30;;;1.17;;
7605;SDS011;3844;53.360;9.738;2022-08-11T08:55:23;4.82;;;1.40;;
7605;SDS011;3844;53.360;9.738;2022-08-11T08:57:27;4.43;;;1.20;;
7605;SDS011;3844;53.360;9.738;2022-08-11T08:59:35;3.88;;;1.40;;
7605;SDS011;3844;53.360;9.738;2022-08-11T09:01:41;4.05;;;1.30;;
7605;SDS011;3844;53.360;9.738;2022-08-11T09:03:49;5.05;;;1.40;;
7605;SDS011;3844;53.360;9.738;2022-08-11T09:05:52;3.37;;;1.33;;
7605;SDS011;3844;53.360;9.738;2022-08-11T09:07:55;5.75;;;1.30;;
7605;SDS011;3844;53.360;9.738;2022-08-11T09:11:58;3.30;;;1.35;;
7605;SDS011;3844;53.360;9.738;2022-08-11T09:13:59;5.00;;;1.08;;
7605;SDS011;3844;53.360;9.738;2022-08-11T09:16:03;2.80;;;1.00;;
7605;SDS011;3844;53.360;9.738;2022-08-11T09:18:05;4.40;;;1.10;;
7605;SDS011;3844;53.360;9.738;2022-08-11T09:20:10;3.95;;;1.40;;
7605;SDS011;3844;53.360;9.738;2022-08-11T09:22:11;3.00;;;1.20;;
7605;SDS011;3844;53.360;9.738;2022-08-11T09:24:36;3.85;;;1.45;;
7605;SDS011;3844;53.360;9.738;2022-08-11T09:26:56;5.10;;;1.30;;
7605;SDS011;3844;53.360;9.738;2022-08-11T09:29:01;4.88;;;1.20;;
7605;SDS011;3844;53.360;9.738;2022-08-11T09:31:03;6.10;;;1.30;;
7605;SDS011;3844;53.360;9.738;2022-08-11T09:33:06;3.15;;;1.30;;
7605;SDS011;3844;53.360;9.738;2022-08-11T09:35:08;3.17;;;1.30;;
7605;SDS011;3844;53.360;9.738;2022-08-11T09:37:09;3.13;;;1.30;;
7605;SDS011;3844;53.360;9.738;2022-08-11T09:39:49;4.20;;;1.35;;
7605;SDS011;3844;53.360;9.738;2022-08-11T09:42:09;4.18;;;1.30;;
7605;SDS011;3844;53.360;9.738;2022-08-11T09:44:11;4.60;;;1.23;;
7605;SDS011;3844;53.360;9.738;2022-08-11T09:46:31;3.17;;;1.20;;
7605;SDS011;3844;53.360;9.738;2022-08-11T09:48:39;4.22;;;1.20;;
7605;SDS011;3844;53.360;9.738;2022-08-11T09:50:44;4.80;;;1.40;;
7605;SDS011;3844;53.360;9.738;2022-08-11T09:52:48;4.88;;;1.60;;
7605;SDS011;3844;53.360;9.738;2022-08-11T09:54:50;4.50;;;1.45;;
7605;SDS011;3844;53.360;9.738;2022-08-11T09:56:52;3.70;;;1.33;;
7605;SDS011;3844;53.360;9.738;2022-08-11T09:59:12;5.47;;;1.40;;
7605;SDS011;3844;53.360;9.738;2022-08-11T10:01:13;5.00;;;1.40;;
7605;SDS011;3844;53.360;9.738;2022-08-11T10:03:25;4.03;;;1.27;;
7605;SDS011;3844;53.360;9.738;2022-08-11T10:05:27;3.60;;;1.45;;
7605;SDS011;3844;53.360;9.738;2022-08-11T10:07:49;3.22;;;1.40;;
7605;SDS011;3844;53.360;9.738;2022-08-11T10:09:54;5.03;;;1.52;;
7605;SDS011;3844;53.360;9.738;2022-08-11T10:12:00;4.95;;;1.65;;
7605;SDS011;3844;53.360;9.738;2022-08-11T10:14:05;7.07;;;1.80;;
7605;SDS011;3844;53.360;9.738;2022-08-11T10:16:27;4.68;;;1.50;;
7605;SDS011;3844;53.360;9.738;2022-08-11T10:18:32;2.65;;;1.25;;
7605;SDS011;3844;53.360;9.738;2022-08-11T10:20:41;5.45;;;1.40;;
7605;SDS011;3844;53.360;9.738;2022-08-11T10:22:44;3.92;;;1.60;;
7605;SDS011;3844;53.360;9.738;2022-08-11T10:25:03;3.28;;;1.10;;
7605;SDS011;3844;53.360;9.738;2022-08-11T10:27:22;3.38;;;1.30;;
7605;SDS011;3844;53.360;9.738;2022-08-11T10:29:24;4.40;;;1.42;;
7605;SDS011;3844;53.360;9.738;2022-08-11T10:31:54;4.63;;;1.63;;
7605;SDS011;3844;53.360;9.738;2022-08-11T10:34:14;4.57;;;1.50;;
7605;SDS011;3844;53.360;9.738;2022-08-11T10:36:16;4.47;;;1.50;;
7605;SDS011;3844;53.360;9.738;2022-08-11T10:38:18;4.72;;;1.60;;
7605;SDS011;3844;53.360;9.738;2022-08-11T10:40:19;5.25;;;1.60;;
7605;SDS011;3844;53.360;9.738;2022-08-11T10:42:22;3.78;;;1.58;;
7605;SDS011;3844;53.360;9.738;2022-08-11T10:44:43;3.70;;;1.40;;
7605;SDS011;3844;53.360;9.738;2022-08-11T10:46:47;3.97;;;1.60;;
7605;SDS011;3844;53.360;9.738;2022-08-11T10:49:08;4.07;;;1.60;;
7605;SDS011;3844;53.360;9.738;2022-08-11T10:51:09;5.93;;;1.40;;
7605;SDS011;3844;53.360;9.738;2022-08-11T10:53:12;5.93;;;1.40;;
7605;SDS011;3844;53.360;9.738;2022-08-11T10:55:32;3.75;;;1.30;;
7605;SDS011;3844;53.360;9.738;2022-08-11T10:57:55;4.25;;;1.30;;
7605;SDS011;3844;53.360;9.738;2022-08-11T11:00:15;4.45;;;1.42;;
7605;SDS011;3844;53.360;9.738;2022-08-11T11:02:17;4.72;;;1.58;;
7605;SDS011;3844;53.360;9.738;2022-08-11T11:04:22;3.05;;;1.40;;
7605;SDS011;3844;53.360;9.738;2022-08-11T11:06:34;6.13;;;1.50;;
7605;SDS011;3844;53.360;9.738;2022-08-11T11:08:39;4.47;;;1.48;;
7605;SDS011;3844;53.360;9.738;2022-08-11T11:10:53;3.40;;;1.30;;
7605;SDS011;3844;53.360;9.738;2022-08-11T11:12:55;3.63;;;1.30;;
7605;SDS011;3844;53.360;9.738;2022-08-11T11:15:17;3.17;;;1.10;;
7605;SDS011;3844;53.360;9.738;2022-08-11T11:17:39;3.80;;;1.25;;
7605;SDS011;3844;53.360;9.738;2022-08-11T11:19:57;3.70;;;1.35;;
7605;SDS011;3844;53.360;9.738;2022-08-11T11:21:59;3.92;;;1.25;;
7605;SDS011;3844;53.360;9.738;2022-08-11T11:35:51;3.53;;;1.40;;
7605;SDS011;3844;53.360;9.738;2022-08-11T11:37:58;6.65;;;1.30;;
7605;SDS011;3844;53.360;9.738;2022-08-11T11:40:00;3.10;;;1.33;;
7605;SDS011;3844;53.360;9.738;2022-08-11T11:42:09;4.35;;;1.40;;
7605;SDS011;3844;53.360;9.738;2022-08-11T11:44:10;3.50;;;1.40;;
7605;SDS011;3844;53.360;9.738;2022-08-11T11:46:12;4.70;;;1.35;;
7605;SDS011;3844;53.360;9.738;2022-08-11T11:48:14;3.80;;;1.33;;
7605;SDS011;3844;53.360;9.738;2022-08-11T11:50:14;5.37;;;1.50;;
7605;SDS011;3844;53.360;9.738;2022-08-11T11:52:18;3.92;;;1.38;;
7605;SDS011;3844;53.360;9.738;2022-08-11T11:54:21;4.80;;;1.40;;
7605;SDS011;3844;53.360;9.738;2022-08-11T11:56:29;5.05;;;1.33;;
7605;SDS011;3844;53.360;9.738;2022-08-11T11:58:30;4.55;;;1.50;;
7605;SDS011;3844;53.360;9.738;2022-08-11T12:00:50;4.68;;;1.40;;
7605;SDS011;3844;53.360;9.738;2022-08-11T12:03:10;6.80;;;1.38;;
7605;SDS011;3844;53.360;9.738;2022-08-11T12:05:12;4.47;;;1.38;;
7605;SDS011;3844;53.360;9.738;2022-08-11T12:07:14;5.78;;;1.40;;
7605;SDS011;3844;53.360;9.738;2022-08-11T12:09:34;3.03;;;1.33;;
7605;SDS011;3844;53.360;9.738;2022-08-11T12:11:35;3.97;;;1.30;;
7605;SDS011;3844;53.360;9.738;2022-08-11T12:13:55;3.05;;;1.30;;
7605;SDS011;3844;53.360;9.738;2022-08-11T12:15:58;2.95;;;1.20;;
7605;SDS011;3844;53.360;9.738;2022-08-11T12:18:02;2.95;;;1.30;;
7605;SDS011;3844;53.360;9.738;2022-08-11T12:20:06;4.55;;;1.40;;
7605;SDS011;3844;53.360;9.738;2022-08-11T12:22:08;3.78;;;1.40;;
7605;SDS011;3844;53.360;9.738;2022-08-11T12:24:31;2.95;;;1.40;;
7605;SDS011;3844;53.360;9.738;2022-08-11T12:26:52;3.45;;;1.40;;
7605;SDS011;3844;53.360;9.738;2022-08-11T12:29:11;3.55;;;1.40;;
7605;SDS011;3844;53.360;9.738;2022-08-11T12:31:13;3.22;;;1.30;;
7605;SDS011;3844;53.360;9.738;2022-08-11T12:33:13;5.90;;;1.55;;
7605;SDS011;3844;53.360;9.738;2022-08-11T12:35:15;3.85;;;1.40;;
7605;SDS011;3844;53.360;9.738;2022-08-11T12:37:18;5.45;;;1.42;;
7605;SDS011;3844;53.360;9.738;2022-08-11T12:39:23;4.40;;;1.40;;
7605;SDS011;3844;53.360;9.738;2022-08-11T12:41:46;3.83;;;1.52;;
7605;SDS011;3844;53.360;9.738;2022-08-11T12:44:06;5.38;;;1.42;;
7605;SDS011;3844;53.360;9.738;2022-08-11T12:46:28;4.47;;;1.50;;
7605;SDS011;3844;53.360;9.738;2022-08-11T12:48:34;3.38;;;1.40;;
7605;SDS011;3844;53.360;9.738;2022-08-11T12:50:55;4.45;;;1.30;;
7605;SDS011;3844;53.360;9.738;2022-08-11T12:53:33;7.40;;;1.30;;
7605;SDS011;3844;53.360;9.738;2022-08-11T12:55:37;3.85;;;1.25;;
7605;SDS011;3844;53.360;9.738;2022-08-11T12:57:59;3.03;;;1.30;;
7605;SDS011;3844;53.360;9.738;2022-08-11T13:00:16;4.95;;;1.50;;
7605;SDS011;3844;53.360;9.738;2022-08-11T13:02:36;4.63;;;1.35;;
7605;SDS011;3844;53.360;9.738;2022-08-11T13:04:58;3.67;;;1.17;;
7605;SDS011;3844;53.360;9.738;2022-08-11T13:07:03;4.30;;;1.30;;
7605;SDS011;3844;53.360;9.738;2022-08-11T13:09:04;4.07;;;1.40;;
7605;SDS011;3844;53.360;9.738;2022-08-11T13:11:06;3.13;;;1.42;;
7605;SDS011;3844;53.360;9.738;2022-08-11T13:13:27;4.93;;;1.30;;
7605;SDS011;3844;53.360;9.738;2022-08-11T13:15:28;2.60;;;1.20;;
7605;SDS011;3844;53.360;9.738;2022-08-11T13:17:30;3.75;;;1.20;;
7605;SDS011;3844;53.360;9.738;2022-08-11T13:19:33;2.97;;;1.25;;
7605;SDS011;3844;53.360;9.738;2022-08-11T13:21:34;3.43;;;1.20;;
7605;SDS011;3844;53.360;9.738;2022-08-11T13:23:35;4.25;;;1.30;;
7605;SDS011;3844;53.360;9.738;2022-08-11T13:25:37;3.97;;;1.45;;
7605;SDS011;3844;53.360;9.738;2022-08-11T13:29:41;2.55;;;1.30;;
7605;SDS011;3844;53.360;9.738;2022-08-11T13:31:45;3.50;;;1.27;;
7605;SDS011;3844;53.360;9.738;2022-08-11T13:33:47;3.40;;;1.10;;
7605;SDS011;3844;53.360;9.738;2022-08-11T13:35:51;3.35;;;1.15;;
7605;SDS011;3844;53.360;9.738;2022-08-11T13:37:54;3.95;;;1.20;;
7605;SDS011;3844;53.360;9.738;2022-08-11T13:39:56;2.92;;;1.20;;
7605;SDS011;3844;53.360;9.738;2022-08-11T13:41:58;3.27;;;1.10;;
7605;SDS011;3844;53.360;9.738;2022-08-11T13:44:00;4.40;;;1.10;;
7605;SDS011;3844;53.360;9.738;2022-08-11T13:46:01;2.95;;;1.10;;
7605;SDS011;3844;53.360;9.738;2022-08-11T13:48:31;2.45;;;1.13;;
7605;SDS011;3844;53.360;9.738;2022-08-11T13:50:32;4.15;;;1.30;;
7605;SDS011;3844;53.360;9.738;2022-08-11T13:52:53;3.13;;;1.30;;
7605;SDS011;3844;53.360;9.738;2022-08-11T13:54:54;3.17;;;1.30;;
7605;SDS011;3844;53.360;9.738;2022-08-11T13:56:56;4.00;;;1.33;;
7605;SDS011;3844;53.360;9.738;2022-08-11T13:59:01;3.53;;;1.27;;
7605;SDS011;3844;53.360;9.738;2022-08-11T14:01:03;3.58;;;1.20;;
7605;SDS011;3844;53.360;9.738;2022-08-11T14:03:07;5.10;;;1.20;;
7605;SDS011;3844;53.360;9.738;2022-08-11T14:05:15;3.25;;;1.15;;
7605;SDS011;3844;53.360;9.738;2022-08-11T14:07:23;4.10;;;1.17;;
7605;SDS011;3844;53.360;9.738;2022-08-11T14:09:27;3.83;;;1.15;;
7605;SDS011;3844;53.360;9.738;2022-08-11T14:11:33;2.53;;;1.20;;
7605;SDS011;3844;53.360;9.738;2022-08-11T14:13:54;5.30;;;1.20;;
7605;SDS011;3844;53.360;9.738;2022-08-11T14:15:58;4.18;;;1.30;;
7605;SDS011;3844;53.360;9.738;2022-08-11T14:18:09;3.72;;;1.10;;
7605;SDS011;3844;53.360;9.738;2022-08-11T14:20:30;4.05;;;1.20;;
7605;SDS011;3844;53.360;9.738;2022-08-11T14:22:52;3.17;;;1.23;;
